Armada, Michigan
Current Conditions -  °F | °C
As of 8:55 AM on Thursday 23 Oct 2014 (Local Time) from KMTC Reporting Station
Clear Clear  
Wind Chill: 39°   Ceiling: Unl
Heat Index: 39°   Visibility: 12mi
Dew Point: 38°   Wind: 3mph
Humidity: 97%   Direction: 320°NW
Pressure: 30.21"   Gusts: NA
Location:  42.84°N, 82.88°W
Report Text: KMTC 231255Z 32003KT 12SM CLR 04/03 A3021 RMK SLP244 T00370033
Loading
Personal Weather Stations






























Interactive Weather Map
Tropical Storm Tracking
New forecast layout! Learn more

10-Day Weather Forecast

Advertisements
Track Severe Weather on mobile